KRF69R LFPG-EGLL
Flight info
| Callsign | KRF69R |
|---|---|
| Flight time | 0h 38m |
| Altitude | 34000 |
| Route | OPALE6G/09R OPALE DCT KESAX DCT DIMAL DCT ALESO |
| Aircraft | A339/H-SADE1E2E3GHIJ3J5M1P2RWXY/LB2D1 |
Departure
| Time | 2026-04-30 21:23 |
|---|---|
| Airport | Charles de Gaulle International Airport (LFPG) |
Arrival
| Time | 2026-04-30 22:01 |
|---|---|
| Airport | London Heathrow Airport (EGLL) |
| Time | Latitude | Longitude | Altitude | Speed | Heading |
|---|---|---|---|---|---|
| 2026-04-30 20:42 | 49.01148 | 2.53623 | 365 ft | 0 kts | 206° |
| 2026-04-30 21:11 | 49.01157 | 2.53629 | 368 ft | 2 kts | 206° |
| 2026-04-30 21:11 | 49.01171 | 2.53640 | 364 ft | 3 kts | 206° |
| 2026-04-30 21:11 | 49.01194 | 2.53656 | 361 ft | 4 kts | 211° |
| 2026-04-30 21:11 | 49.01215 | 2.53689 | 363 ft | 4 kts | 259° |
| 2026-04-30 21:12 | 49.01213 | 2.53731 | 366 ft | 2 kts | 313° |
| 2026-04-30 21:12 | 49.01213 | 2.53733 | 366 ft | 0 kts | 316° |
| 2026-04-30 21:16 | 49.01232 | 2.53706 | 364 ft | 6 kts | 318° |
| 2026-04-30 21:16 | 49.01279 | 2.53665 | 365 ft | 10 kts | 334° |
| 2026-04-30 21:16 | 49.01350 | 2.53626 | 365 ft | 12 kts | 345° |
| 2026-04-30 21:17 | 49.01439 | 2.53605 | 367 ft | 12 kts | 353° |
| 2026-04-30 21:17 | 49.01512 | 2.53604 | 364 ft | 10 kts | 2° |
| 2026-04-30 21:17 | 49.01593 | 2.53604 | 360 ft | 13 kts | 358° |
| 2026-04-30 21:17 | 49.01693 | 2.53593 | 366 ft | 16 kts | 354° |
| 2026-04-30 21:18 | 49.01770 | 2.53518 | 360 ft | 14 kts | 290° |
| 2026-04-30 21:18 | 49.01768 | 2.53364 | 360 ft | 15 kts | 265° |
| 2026-04-30 21:18 | 49.01758 | 2.53194 | 366 ft | 18 kts | 265° |
| 2026-04-30 21:18 | 49.01748 | 2.52987 | 360 ft | 20 kts | 265° |
| 2026-04-30 21:19 | 49.01744 | 2.52906 | 366 ft | 3 kts | 265° |
| 2026-04-30 21:19 | 49.01740 | 2.52848 | 365 ft | 8 kts | 265° |
| 2026-04-30 21:19 | 49.01735 | 2.52746 | 361 ft | 12 kts | 265° |
| 2026-04-30 21:19 | 49.01728 | 2.52601 | 366 ft | 16 kts | 265° |
| 2026-04-30 21:20 | 49.01719 | 2.52416 | 366 ft | 19 kts | 265° |
| 2026-04-30 21:20 | 49.01707 | 2.52229 | 360 ft | 16 kts | 264° |
| 2026-04-30 21:20 | 49.01776 | 2.52140 | 360 ft | 14 kts | 353° |
| 2026-04-30 21:20 | 49.01875 | 2.52127 | 361 ft | 16 kts | 356° |
| 2026-04-30 21:21 | 49.01984 | 2.52111 | 364 ft | 14 kts | 355° |
| 2026-04-30 21:21 | 49.02003 | 2.52109 | 363 ft | 0 kts | 356° |
| 2026-04-30 21:21 | 49.02006 | 2.52108 | 362 ft | 3 kts | 356° |
| 2026-04-30 21:22 | 49.02051 | 2.52108 | 359 ft | 9 kts | 2° |
| 2026-04-30 21:22 | 49.02165 | 2.53227 | 366 ft | 129 kts | 85° |
| 2026-04-30 21:23 | 49.02253 | 2.54845 | 720 ft | 165 kts | 84° |
| 2026-04-30 21:23 | 49.02347 | 2.56622 | 1515 ft | 170 kts | 88° |
| 2026-04-30 21:23 | 49.02545 | 2.60229 | 2974 ft | 189 kts | 90° |
| 2026-04-30 21:24 | 49.02649 | 2.62352 | 3370 ft | 214 kts | 89° |
| 2026-04-30 21:24 | 49.02769 | 2.64747 | 3774 ft | 239 kts | 89° |
| 2026-04-30 21:24 | 49.02910 | 2.67401 | 4209 ft | 263 kts | 88° |
| 2026-04-30 21:24 | 49.03057 | 2.70214 | 5184 ft | 268 kts | 86° |
| 2026-04-30 21:25 | 49.03992 | 2.75605 | 7354 ft | 272 kts | 52° |
| 2026-04-30 21:25 | 49.05464 | 2.77376 | 8456 ft | 273 kts | 25° |
| 2026-04-30 21:25 | 49.07338 | 2.77975 | 9413 ft | 285 kts | 360° |
| 2026-04-30 21:26 | 49.11116 | 2.75632 | 10124 ft | 304 kts | 323° |
| 2026-04-30 21:26 | 49.12759 | 2.73697 | 10205 ft | 301 kts | 322° |
| 2026-04-30 21:27 | 49.16191 | 2.69791 | 10216 ft | 333 kts | 325° |
| 2026-04-30 21:27 | 49.18151 | 2.67743 | 10213 ft | 347 kts | 326° |
| 2026-04-30 21:27 | 49.20162 | 2.65706 | 10212 ft | 343 kts | 327° |
| 2026-04-30 21:28 | 49.24160 | 2.61638 | 10213 ft | 349 kts | 325° |
| 2026-04-30 21:28 | 49.26150 | 2.59467 | 10385 ft | 353 kts | 324° |
| 2026-04-30 21:28 | 49.30140 | 2.55058 | 12363 ft | 357 kts | 324° |
| 2026-04-30 21:29 | 49.32182 | 2.52809 | 13299 ft | 365 kts | 325° |
| 2026-04-30 21:29 | 49.38496 | 2.45872 | 16075 ft | 382 kts | 325° |
| 2026-04-30 21:30 | 49.42877 | 2.41052 | 17881 ft | 393 kts | 326° |
| 2026-04-30 21:31 | 49.49686 | 2.33539 | 20371 ft | 410 kts | 325° |
| 2026-04-30 21:31 | 49.54398 | 2.28325 | 21983 ft | 423 kts | 325° |
| 2026-04-30 21:32 | 49.59213 | 2.22982 | 23681 ft | 435 kts | 325° |
| 2026-04-30 21:32 | 49.61683 | 2.20236 | 24457 ft | 440 kts | 325° |
| 2026-04-30 21:32 | 49.64177 | 2.17460 | 25274 ft | 444 kts | 325° |
| 2026-04-30 21:32 | 49.66691 | 2.14657 | 26047 ft | 448 kts | 324° |
| 2026-04-30 21:33 | 49.69234 | 2.11818 | 26840 ft | 453 kts | 324° |
| 2026-04-30 21:33 | 49.74387 | 2.06054 | 28341 ft | 462 kts | 324° |
| 2026-04-30 21:33 | 49.77002 | 2.03123 | 29094 ft | 467 kts | 324° |
| 2026-04-30 21:34 | 49.79644 | 2.00157 | 29849 ft | 471 kts | 324° |
| 2026-04-30 21:34 | 49.84967 | 1.94170 | 31196 ft | 480 kts | 324° |
| 2026-04-30 21:34 | 49.87684 | 1.91107 | 31852 ft | 485 kts | 324° |
| 2026-04-30 21:35 | 49.90423 | 1.88015 | 32516 ft | 489 kts | 324° |
| 2026-04-30 21:35 | 49.93140 | 1.84801 | 33118 ft | 493 kts | 322° |
| 2026-04-30 21:35 | 49.95832 | 1.81456 | 33635 ft | 497 kts | 321° |
| 2026-04-30 21:35 | 49.98531 | 1.78071 | 34058 ft | 500 kts | 321° |
| 2026-04-30 21:36 | 50.01229 | 1.74697 | 34197 ft | 497 kts | 321° |
| 2026-04-30 21:36 | 50.03923 | 1.71343 | 34211 ft | 496 kts | 321° |
| 2026-04-30 21:37 | 50.12804 | 1.63318 | 34208 ft | 496 kts | 335° |
| 2026-04-30 21:37 | 50.15934 | 1.61049 | 34208 ft | 496 kts | 335° |
| 2026-04-30 21:37 | 50.22186 | 1.56481 | 34209 ft | 496 kts | 335° |
| 2026-04-30 21:38 | 50.28432 | 1.51919 | 34209 ft | 496 kts | 335° |
| 2026-04-30 21:38 | 50.34646 | 1.47377 | 34210 ft | 496 kts | 335° |
| 2026-04-30 21:39 | 50.40892 | 1.42800 | 34210 ft | 496 kts | 335° |
| 2026-04-30 21:39 | 50.47043 | 1.37935 | 34216 ft | 496 kts | 328° |
| 2026-04-30 21:40 | 50.52425 | 1.31193 | 34211 ft | 495 kts | 314° |
| 2026-04-30 21:40 | 50.54768 | 1.27241 | 34011 ft | 493 kts | 311° |
| 2026-04-30 21:40 | 50.57067 | 1.23343 | 33353 ft | 493 kts | 312° |
| 2026-04-30 21:41 | 50.59434 | 1.19416 | 32380 ft | 498 kts | 314° |
| 2026-04-30 21:41 | 50.61889 | 1.15555 | 31169 ft | 502 kts | 315° |
| 2026-04-30 21:41 | 50.64398 | 1.11664 | 29647 ft | 509 kts | 315° |
| 2026-04-30 21:41 | 50.66916 | 1.07743 | 28505 ft | 508 kts | 315° |
| 2026-04-30 21:42 | 50.69404 | 1.03836 | 27748 ft | 502 kts | 315° |
| 2026-04-30 21:42 | 50.71861 | 0.99953 | 27110 ft | 497 kts | 314° |
| 2026-04-30 21:42 | 50.74287 | 0.96104 | 26453 ft | 493 kts | 314° |
| 2026-04-30 21:42 | 50.76692 | 0.92275 | 25804 ft | 489 kts | 314° |
| 2026-04-30 21:43 | 50.79047 | 0.88521 | 25154 ft | 486 kts | 314° |
| 2026-04-30 21:43 | 50.81411 | 0.84744 | 24534 ft | 482 kts | 314° |
| 2026-04-30 21:43 | 50.83758 | 0.80989 | 23910 ft | 478 kts | 314° |
| 2026-04-30 21:43 | 50.86086 | 0.77260 | 23263 ft | 474 kts | 314° |
| 2026-04-30 21:44 | 50.88367 | 0.73600 | 23042 ft | 459 kts | 314° |
| 2026-04-30 21:44 | 50.90554 | 0.70087 | 22545 ft | 439 kts | 314° |
| 2026-04-30 21:44 | 50.92681 | 0.66665 | 21560 ft | 434 kts | 314° |
| 2026-04-30 21:44 | 50.94795 | 0.63256 | 20832 ft | 433 kts | 314° |
| 2026-04-30 21:45 | 50.96917 | 0.59831 | 19860 ft | 439 kts | 314° |
| 2026-04-30 21:45 | 50.99069 | 0.56353 | 19002 ft | 441 kts | 314° |
| 2026-04-30 21:45 | 51.01183 | 0.52938 | 18349 ft | 437 kts | 314° |
| 2026-04-30 21:45 | 51.03305 | 0.49512 | 17593 ft | 432 kts | 314° |
| 2026-04-30 21:46 | 51.05395 | 0.46119 | 16849 ft | 428 kts | 313° |
| 2026-04-30 21:46 | 51.07475 | 0.42743 | 16074 ft | 425 kts | 314° |
| 2026-04-30 21:46 | 51.09576 | 0.39479 | 15342 ft | 421 kts | 315° |
| 2026-04-30 21:46 | 51.11691 | 0.36286 | 14623 ft | 416 kts | 315° |
| 2026-04-30 21:47 | 51.13783 | 0.33134 | 13897 ft | 412 kts | 315° |
| 2026-04-30 21:47 | 51.15749 | 0.29866 | 13104 ft | 406 kts | 306° |
| 2026-04-30 21:47 | 51.17080 | 0.26056 | 12397 ft | 396 kts | 290° |
| 2026-04-30 21:47 | 51.18085 | 0.22009 | 11651 ft | 391 kts | 289° |
| 2026-04-30 21:48 | 51.19053 | 0.18033 | 11139 ft | 373 kts | 289° |
| 2026-04-30 21:48 | 51.19967 | 0.14309 | 10773 ft | 348 kts | 289° |
| 2026-04-30 21:48 | 51.20822 | 0.10856 | 10529 ft | 322 kts | 290° |
| 2026-04-30 21:48 | 51.21618 | 0.07656 | 10150 ft | 303 kts | 290° |
| 2026-04-30 21:49 | 51.22389 | 0.04560 | 9484 ft | 299 kts | 290° |
| 2026-04-30 21:49 | 51.23152 | 0.01492 | 8946 ft | 295 kts | 290° |
| 2026-04-30 21:49 | 51.23904 | -0.01534 | 8434 ft | 291 kts | 290° |
| 2026-04-30 21:49 | 51.24646 | -0.04511 | 7905 ft | 287 kts | 290° |
| 2026-04-30 21:50 | 51.25370 | -0.07426 | 7336 ft | 285 kts | 290° |
| 2026-04-30 21:50 | 51.26096 | -0.10351 | 6781 ft | 282 kts | 290° |
| 2026-04-30 21:50 | 51.26813 | -0.13247 | 6226 ft | 279 kts | 290° |
| 2026-04-30 21:50 | 51.27525 | -0.16117 | 5619 ft | 277 kts | 289° |
| 2026-04-30 21:51 | 51.28229 | -0.18959 | 5043 ft | 273 kts | 289° |
| 2026-04-30 21:51 | 51.28923 | -0.21765 | 4350 ft | 273 kts | 289° |
| 2026-04-30 21:51 | 51.29620 | -0.24589 | 3650 ft | 275 kts | 288° |
| 2026-04-30 21:51 | 51.30306 | -0.27352 | 3412 ft | 261 kts | 288° |
| 2026-04-30 21:52 | 51.30955 | -0.29972 | 3218 ft | 248 kts | 287° |
| 2026-04-30 21:52 | 51.31570 | -0.32478 | 3026 ft | 245 kts | 287° |
| 2026-04-30 21:52 | 51.32201 | -0.35071 | 2997 ft | 249 kts | 287° |
| 2026-04-30 21:52 | 51.32826 | -0.37625 | 2992 ft | 247 kts | 287° |
| 2026-04-30 21:53 | 51.33454 | -0.40192 | 2998 ft | 248 kts | 287° |
| 2026-04-30 21:53 | 51.34081 | -0.42755 | 2993 ft | 249 kts | 287° |
| 2026-04-30 21:53 | 51.34711 | -0.45336 | 2991 ft | 248 kts | 287° |
| 2026-04-30 21:53 | 51.35338 | -0.47900 | 2997 ft | 249 kts | 287° |
| 2026-04-30 21:54 | 51.35967 | -0.50484 | 2991 ft | 249 kts | 287° |
| 2026-04-30 21:54 | 51.36588 | -0.53036 | 3005 ft | 249 kts | 287° |
| 2026-04-30 21:54 | 51.37214 | -0.55608 | 3008 ft | 248 kts | 287° |
| 2026-04-30 21:54 | 51.37841 | -0.58188 | 2994 ft | 249 kts | 287° |
| 2026-04-30 21:55 | 51.38407 | -0.60790 | 2986 ft | 245 kts | 274° |
| 2026-04-30 21:55 | 51.38418 | -0.63451 | 2983 ft | 237 kts | 261° |
| 2026-04-30 21:55 | 51.38330 | -0.66074 | 2698 ft | 237 kts | 261° |
| 2026-04-30 21:55 | 51.38317 | -0.68742 | 2524 ft | 247 kts | 275° |
| 2026-04-30 21:56 | 51.39026 | -0.71281 | 2503 ft | 257 kts | 308° |
| 2026-04-30 21:56 | 51.40438 | -0.72986 | 2496 ft | 255 kts | 339° |
| 2026-04-30 21:56 | 51.42137 | -0.73763 | 2496 ft | 253 kts | 351° |
| 2026-04-30 21:56 | 51.43834 | -0.74208 | 2483 ft | 250 kts | 3° |
| 2026-04-30 21:57 | 51.45434 | -0.73439 | 2366 ft | 233 kts | 44° |
| 2026-04-30 21:57 | 51.46253 | -0.71524 | 2257 ft | 191 kts | 84° |
| 2026-04-30 21:57 | 51.46367 | -0.69579 | 2166 ft | 166 kts | 97° |
| 2026-04-30 21:57 | 51.46332 | -0.67715 | 2105 ft | 167 kts | 97° |
| 2026-04-30 21:58 | 51.46348 | -0.65884 | 2060 ft | 165 kts | 97° |
| 2026-04-30 21:58 | 51.46355 | -0.64010 | 1980 ft | 171 kts | 97° |
| 2026-04-30 21:58 | 51.46372 | -0.62160 | 1770 ft | 155 kts | 96° |
| 2026-04-30 21:58 | 51.46385 | -0.60556 | 1593 ft | 135 kts | 97° |
| 2026-04-30 21:59 | 51.46392 | -0.59102 | 1424 ft | 126 kts | 96° |
| 2026-04-30 21:59 | 51.46400 | -0.57719 | 1269 ft | 127 kts | 96° |
| 2026-04-30 21:59 | 51.46409 | -0.56353 | 1108 ft | 126 kts | 94° |
| 2026-04-30 22:00 | 51.46424 | -0.53520 | 743 ft | 125 kts | 91° |
| 2026-04-30 22:00 | 51.46430 | -0.50663 | 386 ft | 130 kts | 88° |
| 2026-04-30 22:00 | 51.46455 | -0.49248 | 224 ft | 127 kts | 88° |
| 2026-04-30 22:01 | 51.46474 | -0.47826 | 99 ft | 123 kts | 88° |
| 2026-04-30 22:01 | 51.46484 | -0.46742 | 95 ft | 73 kts | 90° |
| 2026-04-30 22:01 | 51.46489 | -0.46007 | 92 ft | 48 kts | 89° |
| 2026-04-30 22:01 | 51.46450 | -0.45563 | 92 ft | 35 kts | 114° |
| 2026-04-30 22:02 | 51.46353 | -0.45409 | 95 ft | 0 kts | 179° |
| 2026-04-30 22:02 | 51.46341 | -0.45415 | 96 ft | 4 kts | 195° |
| 2026-04-30 22:03 | 51.46325 | -0.45458 | 95 ft | 6 kts | 249° |
| 2026-04-30 22:03 | 51.46297 | -0.45519 | 96 ft | 5 kts | 217° |
| 2026-04-30 22:03 | 51.46254 | -0.45512 | 93 ft | 7 kts | 161° |
| 2026-04-30 22:03 | 51.46208 | -0.45494 | 94 ft | 7 kts | 188° |
| 2026-04-30 22:04 | 51.46194 | -0.45546 | 94 ft | 4 kts | 282° |
| 2026-04-30 22:04 | 51.46218 | -0.45582 | 93 ft | 6 kts | 316° |
| 2026-04-30 22:04 | 51.46242 | -0.45664 | 95 ft | 0 kts | 289° |